Time;durP1;ratioP1;P1;durP2;ratioP2;P2;SDS_P1;SDS_P2;PMS_P1;PMS_P2;Temp;Humidity;BMP_temperature;BMP_pressure;BME280_temperature;BME280_humidity;BME280_pressure;Samples;Min_cycle;Max_cycle;Signal;HPM_P1;HPM_P2
2022/12/01 00:00:30;;;;;;;48.40;23.00;;;;;;;2.07;98.04;95993.88;5011789;28;20191;-79
2022/12/01 00:02:57;;;;;;;44.47;21.97;;;;;;;2.28;97.58;95998.63;5011228;28;20205;-79
2022/12/01 00:05:23;;;;;;;49.57;23.90;;;;;;;1.92;97.94;96003.22;5011126;28;20841;-79
2022/12/01 00:07:48;;;;;;;41.40;21.37;;;;;;;2.06;98.35;95994.78;4995563;28;20183;-80
2022/12/01 00:10:25;;;;;;;47.53;22.90;;;;;;;2.07;97.66;95999.00;4995139;28;20249;-80
2022/12/01 00:12:56;;;;;;;49.03;24.40;;;;;;;1.89;98.11;96004.22;4997341;28;20273;-79
2022/12/01 00:15:22;;;;;;;44.50;22.77;;;;;;;2.01;96.98;95989.91;5011288;28;20218;-80
2022/12/01 00:17:48;;;;;;;46.90;22.27;;;;;;;2.07;97.91;95987.00;5005864;28;20216;-80
2022/12/01 00:20:14;;;;;;;43.63;22.23;;;;;;;2.12;97.91;95992.72;5011517;28;20344;-80
2022/12/01 00:22:47;;;;;;;42.53;22.13;;;;;;;2.18;96.92;95987.22;5010629;28;20187;-80
2022/12/01 00:25:13;;;;;;;48.50;22.23;;;;;;;2.25;96.81;95987.72;4995059;28;20217;-80
2022/12/01 00:27:39;;;;;;;45.30;22.73;;;;;;;2.25;97.43;95985.16;5019488;28;20183;-80
2022/12/01 00:30:06;;;;;;;43.73;23.70;;;;;;;2.25;96.36;95991.09;5011993;28;20237;-80
2022/12/01 00:32:32;;;;;;;43.17;21.50;;;;;;;2.11;95.87;95992.78;4999554;28;20191;-81
2022/12/01 00:34:57;;;;;;;44.40;23.87;;;;;;;2.15;95.62;95986.59;4994394;28;20207;-80
2022/12/01 00:37:22;;;;;;;42.97;22.60;;;;;;;2.14;96.14;95987.50;4994510;28;20191;-79
2022/12/01 00:39:47;;;;;;;43.27;22.57;;;;;;;2.17;95.84;95992.44;5011961;28;20730;-78
2022/12/01 00:42:13;;;;;;;43.13;21.90;;;;;;;2.18;95.76;95982.09;4994250;28;20194;-79
2022/12/01 00:44:38;;;;;;;43.23;22.13;;;;;;;2.07;95.92;95986.19;4991135;28;20269;-79
2022/12/01 00:47:03;;;;;;;44.90;23.03;;;;;;;2.04;96.58;95991.50;4994770;28;20218;-79
2022/12/01 00:49:29;;;;;;;43.73;22.93;;;;;;;2.08;95.36;95991.22;5012444;28;20665;-79
2022/12/01 00:51:54;;;;;;;45.83;23.47;;;;;;;2.15;96.04;95995.09;5011852;28;20672;-79
2022/12/01 00:54:19;;;;;;;47.83;24.80;;;;;;;2.23;96.09;95998.06;4994390;28;20219;-79
2022/12/01 00:56:45;;;;;;;50.47;25.57;;;;;;;2.18;95.80;95994.09;5010471;28;20183;-79
2022/12/01 00:59:10;;;;;;;43.97;23.03;;;;;;;1.99;96.02;96001.97;4994486;28;20183;-78
2022/12/01 01:01:35;;;;;;;37.87;21.33;;;;;;;2.07;95.29;96001.56;5012010;28;20191;-79
2022/12/01 01:04:01;;;;;;;46.20;23.60;;;;;;;1.98;95.28;96008.84;4994555;28;20811;-80
2022/12/01 01:06:26;;;;;;;42.07;21.87;;;;;;;1.88;95.29;96002.56;4993976;28;20265;-78
2022/12/01 01:08:51;;;;;;;42.27;21.33;;;;;;;1.82;94.23;96002.91;4993381;28;20183;-79
2022/12/01 01:11:17;;;;;;;39.50;19.20;;;;;;;1.78;95.08;96014.22;4994552;28;20190;-80
2022/12/01 01:13:42;;;;;;;39.43;20.80;;;;;;;1.91;93.63;96010.06;5007576;28;20694;-79
2022/12/01 01:16:20;;;;;;;37.97;21.47;;;;;;;1.88;93.20;96007.69;4990007;28;20187;-79
2022/12/01 01:18:45;;;;;;;42.27;22.63;;;;;;;1.93;93.67;96007.44;4984676;28;20624;-79
2022/12/01 01:21:13;;;;;;;37.33;19.97;;;;;;;1.77;93.60;96010.03;5010054;28;20211;-79
2022/12/01 01:23:38;;;;;;;38.23;20.47;;;;;;;1.82;93.44;96010.56;4994312;28;20210;-79
2022/12/01 01:26:11;;;;;;;34.30;19.57;;;;;;;1.93;93.04;96010.81;5009523;28;20207;-79
2022/12/01 01:28:37;;;;;;;38.70;20.70;;;;;;;1.89;93.13;96006.78;5006897;28;20297;-79
2022/12/01 01:31:10;;;;;;;38.20;20.37;;;;;;;1.79;94.04;96008.19;4991357;28;20191;-79
2022/12/01 01:33:36;;;;;;;35.73;19.27;;;;;;;1.94;92.67;96012.50;5014117;28;20659;-79
2022/12/01 01:36:02;;;;;;;36.10;20.37;;;;;;;1.81;93.49;96011.50;5013344;28;20261;-79
2022/12/01 01:38:28;;;;;;;33.60;19.53;;;;;;;1.88;93.39;96010.25;5004427;28;20191;-80
2022/12/01 01:40:54;;;;;;;37.13;20.40;;;;;;;1.98;92.53;96011.41;4993816;28;20203;-80
2022/12/01 01:43:46;;;;;;;36.07;19.50;;;;;;;2.02;92.65;96017.16;5012543;28;20580;-79
2022/12/01 01:46:15;;;;;;;34.47;18.40;;;;;;;1.79;92.92;96012.50;5010681;28;20207;-79
2022/12/01 01:48:43;;;;;;;34.00;19.07;;;;;;;1.76;93.05;96010.91;5013288;28;20226;-79
2022/12/01 01:51:10;;;;;;;37.13;19.53;;;;;;;1.84;92.60;96018.16;4996999;28;20197;-79
2022/12/01 01:53:36;;;;;;;33.63;18.93;;;;;;;1.77;91.98;96021.97;5011174;28;20203;-79
2022/12/01 01:56:02;;;;;;;33.73;18.73;;;;;;;1.85;92.13;96017.25;5012512;28;20187;-79
2022/12/01 01:58:28;;;;;;;35.43;20.10;;;;;;;1.84;92.32;96019.00;4995335;28;20192;-80
2022/12/01 02:00:54;;;;;;;38.07;18.70;;;;;;;1.72;91.75;96012.00;5013392;28;20191;-79
2022/12/01 02:03:19;;;;;;;32.83;18.23;;;;;;;1.78;91.18;96008.28;5012771;28;20215;-79
2022/12/01 02:05:45;;;;;;;37.83;19.33;;;;;;;1.65;91.37;96010.66;4995969;28;20214;-79
2022/12/01 02:08:13;;;;;;;39.03;20.07;;;;;;;1.68;92.00;96015.63;5013075;28;20227;-80
2022/12/01 02:10:52;;;;;;;36.67;19.63;;;;;;;1.67;92.26;96008.84;4994527;28;20206;-80
2022/12/01 02:13:50;;;;;;;31.87;19.07;;;;;;;1.67;91.62;96006.28;5013003;28;20211;-79
2022/12/01 02:16:53;;;;;;;32.90;18.17;;;;;;;1.48;92.11;96005.59;5012137;28;20187;-78
2022/12/01 02:19:40;;;;;;;36.20;18.57;;;;;;;1.64;91.39;95993.66;4992492;28;20206;-78
2022/12/01 02:22:29;;;;;;;34.07;19.30;;;;;;;1.69;91.91;95996.81;5012040;28;20206;-80
2022/12/01 02:25:16;;;;;;;41.43;19.53;;;;;;;1.62;91.88;95998.03;4995589;28;20210;-80
2022/12/01 02:27:53;;;;;;;36.53;18.90;;;;;;;1.49;92.59;95994.47;5010253;28;20287;-79
2022/12/01 02:30:52;;;;;;;36.57;18.37;;;;;;;1.41;93.35;95992.31;5014050;28;20230;-79
2022/12/01 02:33:23;;;;;;;32.93;18.43;;;;;;;1.60;91.63;95994.75;4995239;28;20208;-79
2022/12/01 02:36:11;;;;;;;37.30;20.70;;;;;;;1.60;92.13;95989.63;4998851;28;20190;-79
2022/12/01 02:39:02;;;;;;;31.80;18.87;;;;;;;1.56;91.47;95988.94;4994461;28;20274;-80
2022/12/01 02:41:31;;;;;;;34.00;18.67;;;;;;;1.48;92.24;95998.75;5002178;28;20183;-79
2022/12/01 02:44:44;;;;;;;35.37;19.93;;;;;;;1.47;91.61;95996.28;4994835;28;20589;-79
2022/12/01 02:47:13;;;;;;;35.20;18.17;;;;;;;1.49;91.69;95989.34;4917263;29;20225;-80
2022/12/01 02:49:46;;;;;;;32.43;18.40;;;;;;;1.55;91.35;95984.72;4897524;29;20210;-79
2022/12/01 02:52:12;;;;;;;36.03;18.80;;;;;;;1.54;91.12;95985.63;4918505;29;20198;-79
2022/12/01 02:54:38;;;;;;;36.03;19.73;;;;;;;1.49;91.95;95990.16;4917785;29;20222;-79
2022/12/01 02:57:04;;;;;;;36.17;20.00;;;;;;;1.56;91.42;95980.44;4916743;29;20194;-80
2022/12/01 02:59:29;;;;;;;31.90;18.80;;;;;;;1.58;91.80;95994.78;4934078;29;20194;-79
2022/12/01 03:02:19;;;;;;;32.30;18.23;;;;;;;1.50;91.53;95991.81;4901748;29;20605;-79
2022/12/01 03:04:55;;;;;;;32.60;17.77;;;;;;;1.40;92.15;95996.59;4901587;29;20285;-79
2022/12/01 03:07:39;;;;;;;35.87;18.30;;;;;;;1.55;91.42;95989.84;4917134;29;20219;-80
2022/12/01 03:10:11;;;;;;;33.40;18.53;;;;;;;1.59;91.36;95980.25;4901523;29;20284;-80
2022/12/01 03:12:54;;;;;;;34.63;19.40;;;;;;;1.55;90.92;95978.78;4931234;29;20189;-79
2022/12/01 03:15:43;;;;;;;32.60;18.03;;;;;;;1.72;91.74;95983.81;4933076;29;20276;-79
2022/12/01 03:18:38;;;;;;;31.63;18.33;;;;;;;1.53;91.51;95985.72;4901633;29;20265;-79
2022/12/01 03:21:09;;;;;;;30.97;18.43;;;;;;;1.62;91.42;95983.50;4968580;28;20207;-79
2022/12/01 03:23:39;;;;;;;34.50;17.97;;;;;;;1.54;90.87;95985.63;5012040;28;20211;-79
2022/12/01 03:26:07;;;;;;;31.13;18.03;;;;;;;1.64;90.87;95980.84;5007599;28;20207;-79
2022/12/01 03:28:39;;;;;;;35.63;18.97;;;;;;;1.60;90.91;95985.31;5012003;28;20215;-79
2022/12/01 03:31:07;;;;;;;32.93;18.93;;;;;;;1.47;92.41;95983.50;4995979;28;20191;-79
2022/12/01 03:33:37;;;;;;;33.37;17.50;;;;;;;1.68;91.31;95985.75;5001639;28;20219;-80
2022/12/01 03:36:07;;;;;;;33.83;17.80;;;;;;;1.51;91.13;95987.56;4992914;28;20191;-78
2022/12/01 03:38:35;;;;;;;32.33;18.27;;;;;;;1.61;90.66;95983.59;5008421;28;20195;-78
2022/12/01 03:41:09;;;;;;;32.87;17.97;;;;;;;1.63;90.72;95984.31;4992185;28;20187;-79
2022/12/01 03:43:39;;;;;;;36.60;18.90;;;;;;;1.52;90.56;95984.91;5011022;28;20255;-78
2022/12/01 03:46:12;;;;;;;33.20;18.33;;;;;;;1.70;90.19;95986.47;5010389;28;20212;-79
2022/12/01 03:48:39;;;;;;;30.03;17.47;;;;;;;1.70;90.56;95978.78;5007299;28;20187;-79
2022/12/01 03:51:26;;;;;;;27.93;16.73;;;;;;;1.65;89.95;95987.63;5011375;28;20563;-79
2022/12/01 03:53:55;;;;;;;34.50;19.00;;;;;;;1.61;90.61;95981.84;4983959;28;20310;-79
2022/12/01 03:56:22;;;;;;;33.10;17.80;;;;;;;1.39;92.06;95984.72;5010156;28;20187;-79
2022/12/01 03:58:49;;;;;;;35.03;18.77;;;;;;;1.45;90.79;95982.75;5007369;28;20265;-81
2022/12/01 04:01:15;;;;;;;32.60;17.73;;;;;;;1.55;90.55;95984.72;5011164;28;20218;-81
2022/12/01 04:03:40;;;;;;;27.67;16.90;;;;;;;1.70;89.55;95980.53;5010835;28;20675;-79
2022/12/01 04:06:05;;;;;;;31.97;18.27;;;;;;;1.73;90.08;95980.34;5010421;28;20211;-81
2022/12/01 04:08:32;;;;;;;33.47;17.70;;;;;;;1.61;89.91;95976.72;5000679;28;20670;-79
2022/12/01 04:10:58;;;;;;;34.53;18.47;;;;;;;1.62;90.63;95977.56;4993997;28;20658;-81
2022/12/01 04:13:24;;;;;;;36.40;19.00;;;;;;;1.59;90.72;95985.38;5010658;28;20214;-81
2022/12/01 04:15:51;;;;;;;34.27;19.17;;;;;;;1.69;91.20;95987.38;5009959;28;20195;-79
2022/12/01 04:18:16;;;;;;;34.57;17.83;;;;;;;1.65;91.32;95983.31;4996587;28;20282;-79
2022/12/01 04:20:42;;;;;;;36.53;18.13;;;;;;;1.73;89.80;95985.47;5007103;28;20222;-78
2022/12/01 04:23:08;;;;;;;33.07;18.67;;;;;;;1.68;90.45;95974.66;4996665;28;20207;-79
2022/12/01 04:25:33;;;;;;;30.93;18.17;;;;;;;1.67;90.76;95985.78;5009741;28;20625;-79
2022/12/01 04:27:58;;;;;;;35.63;18.57;;;;;;;1.70;90.13;95993.34;5004746;28;20222;-80
2022/12/01 04:30:24;;;;;;;35.37;18.60;;;;;;;1.73;89.32;95988.03;5008403;28;20187;-81
2022/12/01 04:32:49;;;;;;;34.03;18.37;;;;;;;1.65;88.99;95979.94;5008488;28;20218;-79
2022/12/01 04:35:14;;;;;;;31.70;17.57;;;;;;;1.79;89.30;95992.84;4990909;28;20670;-78
2022/12/01 04:37:40;;;;;;;35.93;18.37;;;;;;;1.70;89.48;95983.09;4993987;28;20187;-82
2022/12/01 04:40:06;;;;;;;34.97;18.83;;;;;;;1.83;89.65;95994.31;4995181;28;20229;-81
2022/12/01 04:42:31;;;;;;;36.23;19.90;;;;;;;1.70;89.43;95989.03;5012264;28;20190;-80
2022/12/01 04:44:56;;;;;;;37.73;20.57;;;;;;;1.73;89.63;95995.72;5011322;28;20215;-81
2022/12/01 04:47:21;;;;;;;40.07;20.90;;;;;;;1.70;90.78;95986.47;4994981;28;20219;-81
2022/12/01 04:49:47;;;;;;;40.33;21.47;;;;;;;1.53;90.65;95990.84;4993411;28;20192;-81
2022/12/01 04:52:12;;;;;;;30.97;18.30;;;;;;;1.46;91.42;95994.63;4995628;28;20547;-81
2022/12/01 04:54:37;;;;;;;33.93;17.83;;;;;;;1.61;90.13;95989.53;4996083;28;20722;-82
2022/12/01 04:57:03;;;;;;;30.27;17.87;;;;;;;1.67;89.38;95988.34;5014224;28;20195;-79
2022/12/01 04:59:28;;;;;;;34.37;18.63;;;;;;;1.49;89.11;95995.28;4994604;28;20218;-82
2022/12/01 05:01:53;;;;;;;32.70;18.83;;;;;;;1.44;90.76;95992.16;5006839;28;20196;-81
2022/12/01 05:04:19;;;;;;;30.17;17.90;;;;;;;1.51;90.56;95997.78;4995176;28;20226;-81
2022/12/01 05:06:44;;;;;;;36.37;20.10;;;;;;;1.43;92.22;96000.75;4993997;28;20215;-81
2022/12/01 05:09:12;;;;;;;38.50;19.73;;;;;;;1.65;91.28;96003.81;5014083;28;20627;-82
2022/12/01 05:11:38;;;;;;;34.23;18.80;;;;;;;1.58;90.33;96006.78;5013479;28;20245;-79
2022/12/01 05:14:03;;;;;;;33.63;18.50;;;;;;;1.45;90.73;96003.22;5014089;28;20294;-80
2022/12/01 05:16:32;;;;;;;31.63;18.43;;;;;;;1.40;91.42;96008.56;5012342;28;20195;-81
2022/12/01 05:21:48;;;;;;;41.63;21.53;;;;;;;1.37;91.60;96008.75;5013190;28;20322;-80
2022/12/01 05:24:14;;;;;;;48.07;25.63;;;;;;;1.48;91.11;96008.16;5010352;28;20227;-81
2022/12/01 05:26:41;;;;;;;41.03;22.27;;;;;;;1.47;91.32;96012.47;4998011;28;20302;-80
2022/12/01 05:29:07;;;;;;;35.90;20.80;;;;;;;1.38;91.50;96013.78;4998802;28;20191;-81
2022/12/01 05:31:32;;;;;;;40.07;22.90;;;;;;;1.48;91.92;96003.88;5014537;28;20559;-81
2022/12/01 05:33:57;;;;;;;40.23;21.73;;;;;;;1.41;91.77;96007.66;4995140;28;20207;-81
2022/12/01 05:36:23;;;;;;;36.63;23.33;;;;;;;1.52;91.38;96018.19;5030414;28;20187;-81
2022/12/01 05:38:48;;;;;;;36.43;19.23;;;;;;;1.37;92.50;96006.19;5014694;28;20203;-81
2022/12/01 05:41:13;;;;;;;40.13;21.57;;;;;;;1.36;92.02;96013.03;4998570;28;20216;-81
2022/12/01 05:43:38;;;;;;;41.23;20.20;;;;;;;1.45;91.64;96008.34;5012318;28;20222;-81
2022/12/01 05:46:04;;;;;;;38.97;20.53;;;;;;;1.21;92.76;96006.16;4997219;28;20203;-81
2022/12/01 05:48:29;;;;;;;41.43;21.93;;;;;;;1.16;93.04;96007.31;4997613;28;20233;-81
2022/12/01 05:50:54;;;;;;;37.70;20.70;;;;;;;1.20;92.47;96008.78;5012504;28;20187;-81
2022/12/01 05:53:20;;;;;;;37.33;20.80;;;;;;;1.28;92.91;96012.59;4998175;28;20217;-81
2022/12/01 05:55:45;;;;;;;36.47;20.07;;;;;;;1.38;92.67;96003.53;4996550;28;20217;-81
2022/12/01 05:58:11;;;;;;;36.37;20.17;;;;;;;1.40;92.33;96006.84;4994768;28;20245;-80
2022/12/01 06:00:37;;;;;;;36.93;20.53;;;;;;;1.48;91.84;96008.16;4998102;28;20219;-79
2022/12/01 06:03:03;;;;;;;37.87;20.40;;;;;;;1.63;91.53;96007.38;4999148;28;20215;-80
2022/12/01 06:05:28;;;;;;;37.53;19.67;;;;;;;1.58;91.04;96007.59;5000785;28;20211;-79
2022/12/01 06:07:53;;;;;;;37.23;21.90;;;;;;;1.45;90.29;96008.34;5013057;28;20709;-80
2022/12/01 06:10:19;;;;;;;40.20;20.80;;;;;;;1.33;91.39;96010.66;4991222;28;20199;-80
2022/12/01 06:12:44;;;;;;;40.30;22.03;;;;;;;1.39;91.40;96009.47;4996742;28;20202;-80
2022/12/01 06:15:11;;;;;;;39.77;21.67;;;;;;;1.39;91.22;96007.75;4996386;28;20194;-81
2022/12/01 06:17:36;;;;;;;39.40;22.07;;;;;;;1.51;91.59;96013.16;5009780;28;20187;-80
2022/12/01 06:20:01;;;;;;;40.43;21.87;;;;;;;1.57;91.88;96010.25;4996420;28;20195;-80
2022/12/01 06:22:26;;;;;;;37.63;21.57;;;;;;;1.59;91.58;96004.16;5011998;28;20678;-80
2022/12/01 06:24:52;;;;;;;35.77;21.00;;;;;;;1.49;91.01;96009.81;4991830;28;20446;-80
2022/12/01 06:27:17;;;;;;;38.33;21.73;;;;;;;1.53;91.13;96011.31;4996989;28;20219;-80
2022/12/01 06:29:42;;;;;;;40.13;20.73;;;;;;;1.48;91.63;96003.06;5006439;28;20196;-79
2022/12/01 06:32:09;;;;;;;40.77;21.60;;;;;;;1.54;91.67;96012.97;5005788;28;20282;-80
2022/12/01 06:34:34;;;;;;;36.97;20.57;;;;;;;1.51;91.52;96013.97;4995541;28;20246;-80
2022/12/01 06:36:59;;;;;;;41.43;22.97;;;;;;;1.55;91.69;96014.63;4996598;28;20187;-80
2022/12/01 06:39:25;;;;;;;40.47;21.60;;;;;;;1.41;91.58;96021.31;4995456;28;20210;-80
2022/12/01 06:41:50;;;;;;;36.90;21.70;;;;;;;1.61;91.49;96020.25;5007381;28;20200;-81
2022/12/01 06:44:15;;;;;;;43.20;23.30;;;;;;;1.39;91.60;96023.09;4994312;28;20591;-79
2022/12/01 06:46:40;;;;;;;37.93;21.27;;;;;;;1.48;91.41;96028.66;5004824;28;20230;-80
2022/12/01 06:49:10;;;;;;;40.93;22.27;;;;;;;1.44;92.47;96033.09;4992657;28;20207;-80
2022/12/01 06:51:35;;;;;;;42.33;22.47;;;;;;;1.41;92.58;96029.00;5010054;28;20183;-80
2022/12/01 06:54:01;;;;;;;37.40;22.00;;;;;;;1.32;92.81;96023.50;4994275;28;20853;-80
2022/12/01 06:56:26;;;;;;;41.87;21.67;;;;;;;1.30;93.18;96021.03;4998321;28;20229;-79
2022/12/01 06:58:52;;;;;;;41.23;21.70;;;;;;;1.37;93.11;96031.78;5008171;28;20187;-80
2022/12/01 07:01:17;;;;;;;39.03;21.50;;;;;;;1.49;92.96;96035.41;5017229;28;20274;-80
2022/12/01 07:03:47;;;;;;;45.30;25.23;;;;;;;1.39;92.48;96033.34;5010286;28;20763;-80
2022/12/01 07:06:12;;;;;;;47.30;28.37;;;;;;;1.41;92.81;96039.22;4992365;28;20207;-80
2022/12/01 07:08:38;;;;;;;50.27;28.20;;;;;;;1.55;92.11;96040.22;4986161;28;20183;-80
2022/12/01 07:11:06;;;;;;;37.07;21.33;;;;;;;1.46;91.96;96040.69;4989304;28;20191;-80
2022/12/01 07:13:32;;;;;;;39.20;22.30;;;;;;;1.39;92.10;96038.44;5011248;28;20218;-80
2022/12/01 07:15:57;;;;;;;36.83;20.77;;;;;;;1.49;91.77;96037.97;5010059;28;20176;-80
2022/12/01 07:18:22;;;;;;;38.37;20.83;;;;;;;1.31;92.04;96042.31;5010468;28;20191;-80
2022/12/01 07:20:47;;;;;;;36.37;21.80;;;;;;;1.52;91.07;96050.63;5012812;28;20276;-80
2022/12/01 07:23:13;;;;;;;36.43;20.80;;;;;;;1.50;91.80;96043.00;5013630;28;20239;-80
2022/12/01 07:25:38;;;;;;;37.53;21.07;;;;;;;1.52;91.20;96056.56;5003260;28;20211;-80
2022/12/01 07:28:03;;;;;;;40.83;22.63;;;;;;;1.33;91.78;96061.81;4994162;28;20274;-80
2022/12/01 07:30:29;;;;;;;37.83;20.93;;;;;;;1.48;91.13;96055.06;5005677;28;20229;-80
2022/12/01 07:32:54;;;;;;;37.47;20.63;;;;;;;1.45;91.48;96059.53;5006183;28;20183;-80
2022/12/01 07:35:20;;;;;;;35.77;19.80;;;;;;;1.44;91.75;96063.81;4992464;28;20287;-79
2022/12/01 07:37:45;;;;;;;41.27;21.47;;;;;;;1.29;93.26;96062.03;4994353;28;20191;-81
2022/12/01 07:40:11;;;;;;;39.80;22.30;;;;;;;1.37;92.70;96062.47;4989599;28;20183;-80
2022/12/01 07:42:40;;;;;;;37.03;21.60;;;;;;;1.54;92.36;96072.66;5013959;28;20184;-81
2022/12/01 07:45:05;;;;;;;37.93;21.80;;;;;;;1.59;92.25;96070.72;5005754;28;20238;-79
2022/12/01 07:47:31;;;;;;;45.77;25.50;;;;;;;1.46;92.27;96076.53;5010750;28;20211;-80
2022/12/01 07:49:56;;;;;;;36.30;22.47;;;;;;;1.36;92.49;96077.00;5011994;28;20196;-80
2022/12/01 07:52:21;;;;;;;56.77;29.07;;;;;;;1.29;92.95;96073.09;5012133;28;20234;-81
2022/12/01 07:54:46;;;;;;;55.10;27.20;;;;;;;1.29;93.43;96079.97;5010652;28;20230;-80
2022/12/01 07:57:13;;;;;;;41.53;22.63;;;;;;;1.41;92.94;96062.25;5008976;28;20686;-80
2022/12/01 07:59:38;;;;;;;41.20;22.83;;;;;;;1.31;93.48;96067.91;5009029;28;20183;-80
2022/12/01 08:02:04;;;;;;;41.77;22.97;;;;;;;1.41;92.98;96069.06;5027110;28;20333;-80
2022/12/01 08:04:29;;;;;;;37.17;21.80;;;;;;;1.51;92.84;96069.47;4993733;28;20203;-80
2022/12/01 08:06:55;;;;;;;37.87;21.30;;;;;;;1.56;92.48;96070.03;5007827;28;20245;-80
2022/12/01 08:09:21;;;;;;;41.10;22.73;;;;;;;1.38;93.10;96067.50;5006430;28;20668;-80
2022/12/01 08:11:47;;;;;;;39.93;21.90;;;;;;;1.22;94.18;96066.63;5009202;28;20193;-80
2022/12/01 08:14:12;;;;;;;50.97;27.20;;;;;;;1.16;94.99;96066.97;4990731;28;20219;-79
2022/12/01 08:16:37;;;;;;;37.43;22.47;;;;;;;1.44;93.88;96073.22;5008613;28;20206;-79
2022/12/01 08:19:03;;;;;;;37.60;21.60;;;;;;;1.47;93.80;96065.38;5010948;28;20195;-80
2022/12/01 08:21:28;;;;;;;35.00;20.23;;;;;;;1.49;93.11;96069.50;5012194;28;20717;-80
2022/12/01 08:23:55;;;;;;;37.87;21.67;;;;;;;1.50;93.00;96080.56;5002938;28;20223;-80
2022/12/01 08:26:21;;;;;;;42.37;21.77;;;;;;;1.54;92.58;96077.78;5015924;28;20227;-79
2022/12/01 08:28:46;;;;;;;42.93;24.93;;;;;;;1.40;94.55;96083.59;5028310;28;20190;-80
2022/12/01 08:31:16;;;;;;;37.57;21.60;;;;;;;1.43;93.50;96087.75;5031513;28;20175;-79
2022/12/01 08:33:42;;;;;;;38.60;21.37;;;;;;;1.52;92.50;96078.78;5040492;28;20195;-79
2022/12/01 08:36:07;;;;;;;41.60;23.77;;;;;;;1.59;92.14;96075.84;5009163;28;20194;-80
2022/12/01 08:38:33;;;;;;;39.20;21.37;;;;;;;1.38;94.24;96079.47;5023543;28;20191;-80
2022/12/01 08:41:00;;;;;;;39.57;20.90;;;;;;;1.47;94.42;96084.13;4994506;28;20417;-80
2022/12/01 08:43:25;;;;;;;40.77;21.83;;;;;;;1.38;94.45;96085.44;5013490;28;20222;-81
2022/12/01 08:45:50;;;;;;;42.40;21.67;;;;;;;1.40;94.40;96082.78;5002276;28;20203;-80
2022/12/01 08:48:16;;;;;;;40.77;20.87;;;;;;;1.68;94.36;96083.03;5010239;28;20610;-80
2022/12/01 08:50:41;;;;;;;47.73;26.90;;;;;;;1.60;94.44;96081.78;4992440;28;20195;-80
2022/12/01 08:53:06;;;;;;;38.67;20.97;;;;;;;1.55;93.87;96086.28;5008599;28;20245;-79
2022/12/01 08:55:32;;;;;;;39.73;22.83;;;;;;;1.70;93.79;96080.38;4992540;28;20587;-80
2022/12/01 08:57:57;;;;;;;36.77;19.87;;;;;;;1.66;92.71;96078.88;4989980;28;20187;-80
2022/12/01 09:00:22;;;;;;;43.33;23.07;;;;;;;1.56;93.46;96098.19;4993521;28;20248;-80
2022/12/01 09:02:47;;;;;;;38.97;21.37;;;;;;;1.61;93.68;96085.97;4991626;28;20223;-80
2022/12/01 09:05:13;;;;;;;37.77;21.33;;;;;;;1.50;94.70;96093.38;5007100;28;20699;-81
2022/12/01 09:07:39;;;;;;;38.60;21.20;;;;;;;1.66;93.30;96086.56;5006757;28;20316;-81
2022/12/01 09:10:05;;;;;;;41.87;21.03;;;;;;;1.55;94.11;96091.41;4995602;28;20222;-81
2022/12/01 09:12:31;;;;;;;34.80;21.47;;;;;;;1.75;93.88;96088.63;5011372;28;20221;-81
2022/12/01 09:14:56;;;;;;;40.80;22.17;;;;;;;1.75;92.91;96093.75;4991120;28;20207;-82
2022/12/01 09:17:22;;;;;;;37.00;21.77;;;;;;;1.51;94.16;96095.06;5011062;28;20183;-82
2022/12/01 09:19:47;;;;;;;42.30;22.23;;;;;;;1.56;94.11;96085.38;5007187;28;20205;-81
2022/12/01 09:22:13;;;;;;;41.07;22.77;;;;;;;1.70;94.19;96085.50;5006071;28;20675;-81
2022/12/01 09:24:38;;;;;;;41.33;23.10;;;;;;;1.77;92.89;96091.09;5004876;28;20307;-81
2022/12/01 09:27:04;;;;;;;40.17;21.53;;;;;;;1.76;93.81;96090.28;5008364;28;20206;-81
2022/12/01 09:29:29;;;;;;;40.57;22.87;;;;;;;1.91;93.38;96092.03;5006558;28;20192;-81
2022/12/01 09:31:57;;;;;;;41.90;23.47;;;;;;;1.77;93.01;96107.31;5000327;28;20187;-80
2022/12/01 09:34:22;;;;;;;43.13;22.30;;;;;;;1.73;92.88;96100.69;5009405;28;20203;-79
2022/12/01 09:36:48;;;;;;;39.03;21.10;;;;;;;1.55;93.51;96107.59;5005998;28;20188;-80
2022/12/01 09:39:15;;;;;;;36.97;20.07;;;;;;;1.62;93.49;96103.81;5007241;28;20190;-81
2022/12/01 09:41:46;;;;;;;39.23;22.53;;;;;;;1.47;94.97;96108.91;5009063;28;20662;-80
2022/12/01 09:44:27;;;;;;;38.47;20.90;;;;;;;1.52;94.05;96105.22;5004548;28;20718;-80
2022/12/01 09:46:57;;;;;;;38.43;20.40;;;;;;;1.51;94.91;96105.28;5007747;28;20218;-81
2022/12/01 09:49:40;;;;;;;36.40;20.47;;;;;;;1.57;93.86;96110.06;4991954;28;20285;-81
2022/12/01 09:52:10;;;;;;;37.73;21.43;;;;;;;1.41;95.69;96100.66;4994113;28;20288;-81
2022/12/01 09:54:35;;;;;;;39.20;22.30;;;;;;;1.48;95.50;96105.44;5010751;28;20467;-81
2022/12/01 09:57:00;;;;;;;38.03;21.67;;;;;;;1.62;95.07;96100.44;5012847;28;20233;-81
2022/12/01 09:59:30;;;;;;;34.80;20.40;;;;;;;1.73;94.69;96095.56;5013808;28;20195;-80
2022/12/01 10:01:59;;;;;;;37.73;20.83;;;;;;;1.50;94.51;96098.50;4996249;28;20203;-79
2022/12/01 10:04:34;;;;;;;37.10;20.40;;;;;;;1.58;94.03;96088.69;5005678;28;20238;-80
2022/12/01 10:07:03;;;;;;;42.13;21.63;;;;;;;1.72;94.36;96088.81;5010942;28;20520;-80
2022/12/01 10:09:30;;;;;;;36.03;20.23;;;;;;;1.90;93.88;96082.69;5012764;28;20222;-80
2022/12/01 10:12:03;;;;;;;38.93;21.63;;;;;;;1.80;92.99;96073.88;5012194;28;20266;-82
2022/12/01 10:14:33;;;;;;;36.20;21.33;;;;;;;1.81;94.22;96077.25;5007493;28;20218;-80
2022/12/01 10:17:10;;;;;;;38.30;21.13;;;;;;;1.91;94.08;96070.72;5012511;28;20203;-82
2022/12/01 10:19:43;;;;;;;38.77;21.90;;;;;;;1.96;93.30;96072.13;5013242;28;20564;-82
2022/12/01 10:22:38;;;;;;;38.83;21.83;;;;;;;2.09;92.78;96066.34;4997772;28;20744;-81
2022/12/01 10:25:21;;;;;;;37.77;21.57;;;;;;;2.27;92.36;96060.22;4997627;28;20198;-82
2022/12/01 10:27:55;;;;;;;40.77;21.03;;;;;;;2.09;91.63;96056.09;5014018;28;20713;-81
2022/12/01 10:30:22;;;;;;;41.83;21.77;;;;;;;2.08;90.93;96060.41;5015657;28;20198;-81
2022/12/01 10:33:06;;;;;;;35.10;20.53;;;;;;;2.24;91.07;96055.25;5011193;28;20642;-81
2022/12/01 10:35:36;;;;;;;45.47;25.57;;;;;;;2.33;91.78;96048.81;5023919;28;20191;-81
2022/12/01 10:38:11;;;;;;;40.33;20.07;;;;;;;2.25;90.82;96046.66;5011990;28;20266;-81
2022/12/01 10:40:36;;;;;;;40.03;21.63;;;;;;;2.05;91.70;96044.38;4996475;28;20195;-81
2022/12/01 10:43:02;;;;;;;39.10;21.43;;;;;;;1.85;93.43;96042.88;5012501;28;20218;-80
2022/12/01 10:45:29;;;;;;;37.07;21.30;;;;;;;2.10;91.86;96047.50;5009674;28;20191;-80
2022/12/01 10:48:18;;;;;;;39.13;21.13;;;;;;;2.30;90.96;96047.25;5013381;28;20694;-79
2022/12/01 10:50:46;;;;;;;41.53;22.30;;;;;;;2.13;91.10;96044.78;5028532;28;20180;-80
2022/12/01 10:53:25;;;;;;;46.03;25.43;;;;;;;1.94;91.98;96050.06;4997449;28;20210;-81
2022/12/01 10:56:02;;;;;;;36.50;21.40;;;;;;;1.95;91.42;96039.75;5019896;28;20194;-80
2022/12/01 10:58:27;;;;;;;38.90;21.87;;;;;;;1.95;92.41;96046.63;5012189;28;20191;-81
2022/12/01 11:00:57;;;;;;;37.57;21.17;;;;;;;1.99;91.41;96045.53;4996256;28;20198;-80
2022/12/01 11:03:27;;;;;;;36.57;20.43;;;;;;;1.80;92.80;96045.69;5011304;28;20615;-79
2022/12/01 11:05:56;;;;;;;36.03;19.40;;;;;;;1.80;93.19;96042.31;5011579;28;20207;-79
2022/12/01 11:08:34;;;;;;;36.33;21.63;;;;;;;1.93;93.25;96041.56;5011423;28;20196;-80
2022/12/01 11:11:00;;;;;;;35.07;19.53;;;;;;;1.90;92.71;96036.59;4995089;28;20185;-79
2022/12/01 11:13:27;;;;;;;34.90;19.50;;;;;;;1.85;93.60;96037.75;5010322;28;20734;-79
2022/12/01 11:16:01;;;;;;;40.73;22.57;;;;;;;1.82;94.20;96036.19;5006205;28;20180;-81
2022/12/01 11:18:28;;;;;;;41.77;21.50;;;;;;;2.02;93.74;96031.72;5001796;28;20186;-80
2022/12/01 11:21:10;;;;;;;32.83;19.40;;;;;;;2.01;92.42;96035.19;5011670;28;20285;-79
2022/12/01 11:23:46;;;;;;;37.63;20.30;;;;;;;2.09;92.57;96025.34;5012614;28;20214;-79
2022/12/01 11:26:15;;;;;;;35.23;19.87;;;;;;;2.20;92.13;96026.41;5008243;28;20553;-79
2022/12/01 11:28:52;;;;;;;34.63;21.93;;;;;;;2.35;91.14;96024.72;4992702;28;20627;-80
2022/12/01 11:31:17;;;;;;;34.13;20.93;;;;;;;2.28;91.65;96025.97;5008191;28;20187;-79
2022/12/01 11:33:47;;;;;;;35.77;23.47;;;;;;;2.21;91.28;96025.50;5002413;28;20217;-79